Pope Valley, CA

1:17 PM PDT on September 23, 2014 (GMT -0700)
Sonoma County | Change Station
CLOSE
Current Station
Airport
Location: Santa Rosa,
Elevation: 125 ft
Nearby Weather Stations

Elev 125 ft 38.50 °N, 122.81 °W | Updated 24 minutes ago

Clear
Clear
79 °F
Feels Like 79 °F
N
6
Wind Variable Wind from South

Today
High -- | Low -- °F
--% Chance of Precip.
Yesterday
High -- | Low -- °F
Precip. -- in
6:58 AM 7:04 PM
Waning Crescent, 0% visible
Pressure 29.94 in
Visibility 10.0 miles
Clouds Few 2000 ft
Scattered Clouds 18000 ft
Dew Point 60 °F
Humidity 52%
Rainfall 0.01 in
Snow Depth 0 in , 1 in , 0 in
UV 6 out of 12
Pollen 5.30 out of 12
PM2.5 Good
Flu Activity Not available.
METAR KSTS 231953Z 17005KT 10SM FEW020 SCT180 26/16 A2996 RMK AO2 SLP137 T02610156

More Conditions Fewer Conditions

Pressure 29.94 in
Visibility 10.0 miles
Clouds Few 2000 ft
Scattered Clouds 18000 ft
Dew Point 60 °F
Humidity 52%
Rainfall 0.01 in
Snow Depth 0 in , 1 in , 0 in
UV 6 out of 12
Pollen 5.30 out of 12
PM2.5 Good
Flu Activity Not available.
METAR KSTS 231953Z 17005KT 10SM FEW020 SCT180 26/16 A2996 RMK AO2 SLP137 T02610156

More Conditions Fewer Conditions

10-Day Weather Forecast

Almanac

Astronomy

Sep. 23, 2014 Rise Set
Actual Time 6:58 AM PDT 7:04 PM PDT
Civil Twilight 6:31 AM PDT 7:31 PM PDT
Nautical Twilight 6:00 AM PDT 8:02 PM PDT
Astronomical Twilight 5:29 AM PDT 8:33 PM PDT
Moon 6:27 AM PDT 6:46 PM PDT
Length of Visible Light 12h 59m
Length of Day
12h 06m
Tomorrow will be 2m 29s shorter.
Waning Crescent, 0% of the Moon is Illuminated
Today
Waning Crescent
Sep 24
New
Oct 1
First Quarter
Oct 8
Full
Oct 15
Last Quarter

Today's Extremes

State Highs State Lows

Community

WunderPhotos

Upload Photos

1,755,786 photos uploaded!

WunderBlogs® & News

By Dr. Jeff Masters
Director of Meteorology, Weather Underground
By Kari Strenfel
Meteorologist, Weather Underground
By Christopher C. Burt
Weather Historian, Weather Underground
September 23, 2014
September 23, 2014
September 23, 2014

Nearby

Air Quality

  Air Quality AQ Index Pollutant
Yesterday Good
OZONE
Yesterday Good
PM2.5
Current Good
PM2.5
Tuesday Good
PM2.5
Wednesday Good
PM2.5
Thursday Good
OZONE
Friday Good
OZONE
Saturday Good
OZONE
Sunday Good
OZONE

Snow Depth

Station Depth Elevation
Leavitt Meadows 0 in 7200 ft
CSS Lab 1 in 6900 ft
Burnside Lake 0 in 8139 ft
Summit Meadow 1 in 9122 ft
Adin Mountain 0 in 6200 ft

Earthquake Activity

City Distance Mag. Time & Date
Yountville, California 23 miles 2.6 1:17 PM PDT
2014-09-21
Minimum magnitude displayed is 2.5.

Coastal Water Temperatures

Place Temperature
No Stations Reporting

Nearby Weather Stations